This is the latest recevied weather packets stored in our database for station/object MB7IWY-13. If no packets are shown the sender has not sent any weather packets the latest 10 day(s).
| Time | Temp. | Humidity | Pressure | Rain* | Wind** | Luminosity | Snow |
|---|---|---|---|---|---|---|---|
| 1777599903 | 6.11° C | 79% | 1044 hPa | 0 mm | - | 0 W/m² | - |
| 1777596303 | 6.67° C | 77% | 1044 hPa | 0 mm | - | 0 W/m² | - |
| 1777594704 | 7.22° C | 75% | 1044 hPa | 0 mm | - | 0 W/m² | - |
| 1777593603 | 8.33° C | 73% | 1044 hPa | 0 mm | - | 0 W/m² | - |
| 1777588563 | 10° C | 67% | 1045 hPa | 0 mm | - | 0 W/m² | - |
| 1777586043 | 10° C | 65% | 1045 hPa | 0 mm | - | 0 W/m² | - |
| 1777582803 | 11.67° C | 62% | 1045 hPa | 0 mm | - | 0 W/m² | - |
| 1777578303 | 13.33° C | 58% | 1044 hPa | 0 mm | - | 0 W/m² | - |
| 1777577763 | 13.33° C | 58% | 1044 hPa | 0 mm | - | 0 W/m² | - |
| 1777577223 | 14.44° C | 58% | 1044 hPa | 0 mm | - | 0 W/m² | - |
| 1777576683 | 14.44° C | 58% | 1044 hPa | 0 mm | - | 0 W/m² | - |
| 1777574163 | 15° C | 56% | 1044 hPa | 0 mm | - | 0 W/m² | - |
| 1777571642 | 17.22° C | 51% | 1044 hPa | 0 mm | - | 0 W/m² | - |
| 1777571123 | 17.22° C | 51% | 1044 hPa | 0 mm | - | 0 W/m² | - |
| 1777569482 | 17.78° C | 50% | 1044 hPa | 0 mm | - | 0 W/m² | - |
| 1777568042 | 18.89° C | 44% | 1044 hPa | 0 mm | - | 0 W/m² | - |
| 1777566962 | 18.89° C | 44% | 1044 hPa | 0 mm | - | 0 W/m² | - |
| 1777564463 | 19.44° C | 42% | 1044 hPa | 0 mm | - | 0 W/m² | - |
| 1777561742 | 19.44° C | 41% | 1044 hPa | 0 mm | - | 0 W/m² | - |
| 1777560842 | 18.89° C | 42% | 1044 hPa | 0 mm | - | 0 W/m² | - |
| 1777557602 | 18.33° C | 44% | 1045 hPa | 0 mm | - | 0 W/m² | - |
| 1777554542 | 18.33° C | 44% | 1045 hPa | 0 mm | - | 0 W/m² | - |
| 1777551482 | 17.22° C | 46% | 1045 hPa | 0 mm | - | 0 W/m² | - |
| 1777544822 | 14.44° C | 61% | 1047.1 hPa | 0 mm | - | 0 W/m² | - |
| 1777543202 | 13.89° C | 66% | 1047.1 hPa | 0 mm | - | 0 W/m² | - |
* Rain latest hour (hover to see other rain measurements)
** Current wind speed in m/s (hover to see current wind gust speed)